Pinecrest, California
Current Conditions -  °F | °C
As of 4:35 PM on Sunday 21 Dec 2014 (Local Time) from KO22 Reporting Station
Overcast Overcast  
Wind Chill: 55°   Ceiling: 400
Heat Index: 55°   Visibility: 10mi
Dew Point: 55°   Wind: 5mph
Humidity: 100%   Direction: 290°WNW
Pressure: 30.23"   Gusts: NA
Location:  38.19°N, 119.99°W
Report Text: KO22 220035Z AUTO 29004KT 10SM OVC004 13/13 A3023 RMK AO1
Loading
Personal Weather Stations






























Interactive Weather Map New forecast layout! Learn more

10-Day Weather Forecast

Advertisements
Track Severe Weather on mobile